sensor_id;sensor_type;location;lat;lon;timestamp;temperature;humidity
18173;DHT22;9211;48.818;9.312;2023-03-31T00:01:58;13.70;99.90
18173;DHT22;9211;48.818;9.312;2023-03-31T00:04:26;13.70;99.90
18173;DHT22;9211;48.818;9.312;2023-03-31T00:06:56;13.70;99.90
18173;DHT22;9211;48.818;9.312;2023-03-31T00:09:24;13.70;99.90
18173;DHT22;9211;48.818;9.312;2023-03-31T00:11:52;13.70;99.90
18173;DHT22;9211;48.818;9.312;2023-03-31T00:14:20;13.70;99.90
18173;DHT22;9211;48.818;9.312;2023-03-31T00:16:47;13.70;99.90
18173;DHT22;9211;48.818;9.312;2023-03-31T00:19:14;13.60;99.90
18173;DHT22;9211;48.818;9.312;2023-03-31T00:21:46;13.60;99.90
18173;DHT22;9211;48.818;9.312;2023-03-31T00:24:14;13.70;99.90
18173;DHT22;9211;48.818;9.312;2023-03-31T00:26:42;13.70;99.90
18173;DHT22;9211;48.818;9.312;2023-03-31T00:29:12;13.60;99.90
18173;DHT22;9211;48.818;9.312;2023-03-31T00:31:39;13.60;99.90
18173;DHT22;9211;48.818;9.312;2023-03-31T00:34:06;13.60;99.90
18173;DHT22;9211;48.818;9.312;2023-03-31T00:36:33;13.60;99.90
18173;DHT22;9211;48.818;9.312;2023-03-31T00:39:10;13.60;99.90
18173;DHT22;9211;48.818;9.312;2023-03-31T00:41:38;13.50;99.90
18173;DHT22;9211;48.818;9.312;2023-03-31T00:44:12;13.50;99.90
18173;DHT22;9211;48.818;9.312;2023-03-31T00:46:45;13.50;99.90
18173;DHT22;9211;48.818;9.312;2023-03-31T00:49:18;13.50;99.90
18173;DHT22;9211;48.818;9.312;2023-03-31T00:51:48;13.50;99.90
18173;DHT22;9211;48.818;9.312;2023-03-31T00:54:16;13.40;99.90
18173;DHT22;9211;48.818;9.312;2023-03-31T00:56:47;13.40;99.90
18173;DHT22;9211;48.818;9.312;2023-03-31T00:59:16;13.40;99.90
18173;DHT22;9211;48.818;9.312;2023-03-31T01:01:45;13.40;99.90
18173;DHT22;9211;48.818;9.312;2023-03-31T01:04:16;13.40;99.90
18173;DHT22;9211;48.818;9.312;2023-03-31T01:06:54;13.40;99.90
18173;DHT22;9211;48.818;9.312;2023-03-31T01:09:28;13.40;99.90
18173;DHT22;9211;48.818;9.312;2023-03-31T01:12:02;13.50;99.90
18173;DHT22;9211;48.818;9.312;2023-03-31T01:14:31;13.50;99.90
18173;DHT22;9211;48.818;9.312;2023-03-31T01:16:58;13.50;99.90
18173;DHT22;9211;48.818;9.312;2023-03-31T01:19:39;13.50;99.90
18173;DHT22;9211;48.818;9.312;2023-03-31T01:25:43;13.50;99.90
18173;DHT22;9211;48.818;9.312;2023-03-31T01:28:32;13.50;99.90
18173;DHT22;9211;48.818;9.312;2023-03-31T01:31:26;13.60;99.90
18173;DHT22;9211;48.818;9.312;2023-03-31T01:34:52;13.60;99.90
18173;DHT22;9211;48.818;9.312;2023-03-31T01:37:58;13.60;99.90
18173;DHT22;9211;48.818;9.312;2023-03-31T01:41:05;13.60;99.90
18173;DHT22;9211;48.818;9.312;2023-03-31T01:43:38;13.70;99.90
18173;DHT22;9211;48.818;9.312;2023-03-31T01:46:10;13.70;99.90
18173;DHT22;9211;48.818;9.312;2023-03-31T01:48:53;13.60;99.90
18173;DHT22;9211;48.818;9.312;2023-03-31T01:51:32;13.60;99.90
18173;DHT22;9211;48.818;9.312;2023-03-31T01:54:03;13.60;99.90
18173;DHT22;9211;48.818;9.312;2023-03-31T01:56:36;13.50;99.90
18173;DHT22;9211;48.818;9.312;2023-03-31T01:59:10;13.60;99.90
18173;DHT22;9211;48.818;9.312;2023-03-31T02:01:44;13.60;99.90
18173;DHT22;9211;48.818;9.312;2023-03-31T02:04:16;13.60;99.90
18173;DHT22;9211;48.818;9.312;2023-03-31T02:06:49;13.60;99.90
18173;DHT22;9211;48.818;9.312;2023-03-31T02:09:24;13.60;99.90
18173;DHT22;9211;48.818;9.312;2023-03-31T02:11:54;13.60;99.90
18173;DHT22;9211;48.818;9.312;2023-03-31T02:14:26;13.50;99.90
18173;DHT22;9211;48.818;9.312;2023-03-31T02:16:56;13.50;99.90
18173;DHT22;9211;48.818;9.312;2023-03-31T02:19:26;13.50;99.90
18173;DHT22;9211;48.818;9.312;2023-03-31T02:21:54;13.40;99.90
18173;DHT22;9211;48.818;9.312;2023-03-31T02:24:24;13.40;99.90
18173;DHT22;9211;48.818;9.312;2023-03-31T02:26:59;13.50;99.90
18173;DHT22;9211;48.818;9.312;2023-03-31T02:29:28;13.40;99.90
18173;DHT22;9211;48.818;9.312;2023-03-31T02:31:59;13.50;99.90
18173;DHT22;9211;48.818;9.312;2023-03-31T02:34:28;13.40;99.90
18173;DHT22;9211;48.818;9.312;2023-03-31T02:36:55;13.40;99.90
18173;DHT22;9211;48.818;9.312;2023-03-31T02:39:24;13.40;99.90
18173;DHT22;9211;48.818;9.312;2023-03-31T02:41:54;13.40;99.90
18173;DHT22;9211;48.818;9.312;2023-03-31T02:44:21;13.30;99.90
18173;DHT22;9211;48.818;9.312;2023-03-31T02:46:51;13.30;99.90
18173;DHT22;9211;48.818;9.312;2023-03-31T02:49:18;13.20;99.90
18173;DHT22;9211;48.818;9.312;2023-03-31T02:51:59;13.20;99.90
18173;DHT22;9211;48.818;9.312;2023-03-31T02:54:59;13.20;99.90
18173;DHT22;9211;48.818;9.312;2023-03-31T02:58:04;13.10;99.90
18173;DHT22;9211;48.818;9.312;2023-03-31T03:00:44;13.10;99.90
18173;DHT22;9211;48.818;9.312;2023-03-31T03:03:26;13.10;99.90
18173;DHT22;9211;48.818;9.312;2023-03-31T03:06:00;13.10;99.90
18173;DHT22;9211;48.818;9.312;2023-03-31T03:08:47;13.10;99.90
18173;DHT22;9211;48.818;9.312;2023-03-31T03:11:24;13.10;99.90
18173;DHT22;9211;48.818;9.312;2023-03-31T03:14:01;13.00;99.90
18173;DHT22;9211;48.818;9.312;2023-03-31T03:16:33;13.00;99.90
18173;DHT22;9211;48.818;9.312;2023-03-31T03:19:05;13.00;99.90
18173;DHT22;9211;48.818;9.312;2023-03-31T03:21:33;12.90;99.90
18173;DHT22;9211;48.818;9.312;2023-03-31T03:24:00;12.90;99.90
18173;DHT22;9211;48.818;9.312;2023-03-31T03:26:27;12.90;99.90
18173;DHT22;9211;48.818;9.312;2023-03-31T03:28:56;12.90;99.90
18173;DHT22;9211;48.818;9.312;2023-03-31T03:31:23;12.90;99.90
18173;DHT22;9211;48.818;9.312;2023-03-31T03:33:50;12.80;99.90
18173;DHT22;9211;48.818;9.312;2023-03-31T03:36:18;12.80;99.90
18173;DHT22;9211;48.818;9.312;2023-03-31T03:38:44;12.80;99.90
18173;DHT22;9211;48.818;9.312;2023-03-31T03:41:11;12.80;99.90
18173;DHT22;9211;48.818;9.312;2023-03-31T03:43:38;12.70;99.90
18173;DHT22;9211;48.818;9.312;2023-03-31T03:46:07;12.70;99.90
18173;DHT22;9211;48.818;9.312;2023-03-31T03:48:34;12.70;99.90
18173;DHT22;9211;48.818;9.312;2023-03-31T03:51:01;12.60;99.90
18173;DHT22;9211;48.818;9.312;2023-03-31T03:53:28;12.60;99.90
18173;DHT22;9211;48.818;9.312;2023-03-31T03:55:55;12.60;99.90
18173;DHT22;9211;48.818;9.312;2023-03-31T03:58:23;12.60;99.90
18173;DHT22;9211;48.818;9.312;2023-03-31T04:00:50;12.60;99.90
18173;DHT22;9211;48.818;9.312;2023-03-31T04:03:19;12.60;99.90
18173;DHT22;9211;48.818;9.312;2023-03-31T04:05:46;12.60;99.90
18173;DHT22;9211;48.818;9.312;2023-03-31T04:08:15;12.60;99.90
18173;DHT22;9211;48.818;9.312;2023-03-31T04:10:43;12.60;99.90
18173;DHT22;9211;48.818;9.312;2023-03-31T04:13:11;12.50;99.90
18173;DHT22;9211;48.818;9.312;2023-03-31T04:15:38;12.50;99.90
18173;DHT22;9211;48.818;9.312;2023-03-31T04:18:05;12.50;99.90
18173;DHT22;9211;48.818;9.312;2023-03-31T04:20:36;12.40;99.90
18173;DHT22;9211;48.818;9.312;2023-03-31T04:23:03;12.30;99.90
18173;DHT22;9211;48.818;9.312;2023-03-31T04:25:34;12.30;99.90
18173;DHT22;9211;48.818;9.312;2023-03-31T04:28:04;12.30;99.90
18173;DHT22;9211;48.818;9.312;2023-03-31T04:30:31;12.20;99.90
18173;DHT22;9211;48.818;9.312;2023-03-31T04:33:00;12.20;99.90
18173;DHT22;9211;48.818;9.312;2023-03-31T04:35:29;12.20;99.90
18173;DHT22;9211;48.818;9.312;2023-03-31T04:38:08;12.20;99.90
18173;DHT22;9211;48.818;9.312;2023-03-31T04:40:35;12.20;99.90
18173;DHT22;9211;48.818;9.312;2023-03-31T04:43:04;12.10;99.90
18173;DHT22;9211;48.818;9.312;2023-03-31T04:45:31;12.20;99.90
18173;DHT22;9211;48.818;9.312;2023-03-31T04:47:58;12.10;99.90
18173;DHT22;9211;48.818;9.312;2023-03-31T04:50:25;12.20;99.90
18173;DHT22;9211;48.818;9.312;2023-03-31T04:52:53;12.20;99.90
18173;DHT22;9211;48.818;9.312;2023-03-31T04:55:21;12.20;99.90
18173;DHT22;9211;48.818;9.312;2023-03-31T04:57:48;12.20;99.90
18173;DHT22;9211;48.818;9.312;2023-03-31T05:00:17;12.30;99.90
18173;DHT22;9211;48.818;9.312;2023-03-31T05:02:44;12.30;99.90
18173;DHT22;9211;48.818;9.312;2023-03-31T05:05:11;12.30;99.90
18173;DHT22;9211;48.818;9.312;2023-03-31T05:07:38;12.40;99.90
18173;DHT22;9211;48.818;9.312;2023-03-31T05:10:07;12.40;99.90
18173;DHT22;9211;48.818;9.312;2023-03-31T05:12:35;12.40;99.90
18173;DHT22;9211;48.818;9.312;2023-03-31T05:15:03;12.40;99.90
18173;DHT22;9211;48.818;9.312;2023-03-31T05:17:30;12.50;99.90
18173;DHT22;9211;48.818;9.312;2023-03-31T05:19:58;12.50;99.90
18173;DHT22;9211;48.818;9.312;2023-03-31T05:22:25;12.50;99.90
18173;DHT22;9211;48.818;9.312;2023-03-31T05:24:52;12.50;99.90
18173;DHT22;9211;48.818;9.312;2023-03-31T05:27:19;12.50;99.90
18173;DHT22;9211;48.818;9.312;2023-03-31T05:29:48;12.60;99.90
18173;DHT22;9211;48.818;9.312;2023-03-31T05:32:15;12.50;99.90
18173;DHT22;9211;48.818;9.312;2023-03-31T05:34:42;12.60;99.90
18173;DHT22;9211;48.818;9.312;2023-03-31T05:37:09;12.50;99.90
18173;DHT22;9211;48.818;9.312;2023-03-31T05:39:36;12.40;99.90
18173;DHT22;9211;48.818;9.312;2023-03-31T05:42:03;12.40;99.90
18173;DHT22;9211;48.818;9.312;2023-03-31T05:44:32;12.30;99.90
18173;DHT22;9211;48.818;9.312;2023-03-31T05:47:00;12.20;99.90
18173;DHT22;9211;48.818;9.312;2023-03-31T05:49:27;12.10;99.90
18173;DHT22;9211;48.818;9.312;2023-03-31T05:51:54;12.10;99.90
18173;DHT22;9211;48.818;9.312;2023-03-31T05:54:21;12.00;99.90
18173;DHT22;9211;48.818;9.312;2023-03-31T05:56:48;12.00;99.90
18173;DHT22;9211;48.818;9.312;2023-03-31T05:59:15;11.90;99.90
18173;DHT22;9211;48.818;9.312;2023-03-31T06:01:42;11.90;99.90
18173;DHT22;9211;48.818;9.312;2023-03-31T06:04:10;11.90;99.90
18173;DHT22;9211;48.818;9.312;2023-03-31T06:06:37;11.80;99.90
18173;DHT22;9211;48.818;9.312;2023-03-31T06:09:05;11.80;99.90
18173;DHT22;9211;48.818;9.312;2023-03-31T06:11:32;11.80;99.90
18173;DHT22;9211;48.818;9.312;2023-03-31T06:13:59;11.80;99.90
18173;DHT22;9211;48.818;9.312;2023-03-31T06:16:26;11.90;99.90
18173;DHT22;9211;48.818;9.312;2023-03-31T06:18:53;11.90;99.90
18173;DHT22;9211;48.818;9.312;2023-03-31T06:21:22;11.80;99.90
18173;DHT22;9211;48.818;9.312;2023-03-31T06:23:49;11.80;99.90
18173;DHT22;9211;48.818;9.312;2023-03-31T06:26:19;11.80;99.90
18173;DHT22;9211;48.818;9.312;2023-03-31T06:28:47;11.80;99.90
18173;DHT22;9211;48.818;9.312;2023-03-31T06:31:16;11.80;99.90
18173;DHT22;9211;48.818;9.312;2023-03-31T06:33:43;11.70;99.90
18173;DHT22;9211;48.818;9.312;2023-03-31T06:36:12;11.80;99.90
18173;DHT22;9211;48.818;9.312;2023-03-31T06:38:41;11.70;99.90
18173;DHT22;9211;48.818;9.312;2023-03-31T06:41:11;11.70;99.90
18173;DHT22;9211;48.818;9.312;2023-03-31T06:43:38;11.70;99.90
18173;DHT22;9211;48.818;9.312;2023-03-31T06:46:06;11.70;99.90
18173;DHT22;9211;48.818;9.312;2023-03-31T06:48:33;11.60;99.90
18173;DHT22;9211;48.818;9.312;2023-03-31T06:51:02;11.70;99.90
18173;DHT22;9211;48.818;9.312;2023-03-31T06:53:29;11.70;99.90
18173;DHT22;9211;48.818;9.312;2023-03-31T06:55:58;11.70;99.90
18173;DHT22;9211;48.818;9.312;2023-03-31T06:58:25;11.70;99.90
18173;DHT22;9211;48.818;9.312;2023-03-31T07:00:52;11.70;99.90
18173;DHT22;9211;48.818;9.312;2023-03-31T07:03:19;11.70;99.90
18173;DHT22;9211;48.818;9.312;2023-03-31T07:05:47;11.70;99.90
18173;DHT22;9211;48.818;9.312;2023-03-31T07:08:15;11.70;99.90
18173;DHT22;9211;48.818;9.312;2023-03-31T07:10:43;11.60;99.90
18173;DHT22;9211;48.818;9.312;2023-03-31T07:13:14;11.60;99.90
18173;DHT22;9211;48.818;9.312;2023-03-31T07:15:42;11.60;99.90
18173;DHT22;9211;48.818;9.312;2023-03-31T07:18:09;11.60;99.90
18173;DHT22;9211;48.818;9.312;2023-03-31T07:20:37;11.70;99.90
18173;DHT22;9211;48.818;9.312;2023-03-31T07:23:04;11.70;99.90
18173;DHT22;9211;48.818;9.312;2023-03-31T07:25:32;11.60;99.90
18173;DHT22;9211;48.818;9.312;2023-03-31T07:27:59;11.70;99.90
18173;DHT22;9211;48.818;9.312;2023-03-31T07:30:28;11.70;99.90
18173;DHT22;9211;48.818;9.312;2023-03-31T07:32:55;11.70;99.90
18173;DHT22;9211;48.818;9.312;2023-03-31T07:35:22;11.60;99.90
18173;DHT22;9211;48.818;9.312;2023-03-31T07:37:50;11.60;99.90
18173;DHT22;9211;48.818;9.312;2023-03-31T07:40:19;11.60;99.90
18173;DHT22;9211;48.818;9.312;2023-03-31T07:42:47;11.70;99.90
18173;DHT22;9211;48.818;9.312;2023-03-31T07:45:17;11.70;99.90
18173;DHT22;9211;48.818;9.312;2023-03-31T07:47:46;11.70;99.90
18173;DHT22;9211;48.818;9.312;2023-03-31T07:50:14;11.70;99.90
18173;DHT22;9211;48.818;9.312;2023-03-31T07:52:42;11.70;99.90
18173;DHT22;9211;48.818;9.312;2023-03-31T07:55:09;11.70;99.90
18173;DHT22;9211;48.818;9.312;2023-03-31T07:57:36;11.70;99.90
18173;DHT22;9211;48.818;9.312;2023-03-31T08:00:06;11.80;99.90
18173;DHT22;9211;48.818;9.312;2023-03-31T08:02:40;11.90;99.90
18173;DHT22;9211;48.818;9.312;2023-03-31T08:05:09;11.90;99.90
18173;DHT22;9211;48.818;9.312;2023-03-31T08:07:38;11.90;99.90
18173;DHT22;9211;48.818;9.312;2023-03-31T08:10:09;11.90;99.90
18173;DHT22;9211;48.818;9.312;2023-03-31T08:12:36;11.90;99.90
18173;DHT22;9211;48.818;9.312;2023-03-31T08:15:05;11.80;99.90
18173;DHT22;9211;48.818;9.312;2023-03-31T08:17:32;11.90;99.90
18173;DHT22;9211;48.818;9.312;2023-03-31T08:19:59;11.90;99.90
18173;DHT22;9211;48.818;9.312;2023-03-31T08:22:28;12.00;99.90
18173;DHT22;9211;48.818;9.312;2023-03-31T08:24:55;12.00;99.90
18173;DHT22;9211;48.818;9.312;2023-03-31T08:27:22;12.10;99.90
18173;DHT22;9211;48.818;9.312;2023-03-31T08:29:50;12.10;99.90
18173;DHT22;9211;48.818;9.312;2023-03-31T08:32:17;12.20;99.90
18173;DHT22;9211;48.818;9.312;2023-03-31T08:34:44;12.30;99.90
18173;DHT22;9211;48.818;9.312;2023-03-31T08:37:11;12.30;99.90
18173;DHT22;9211;48.818;9.312;2023-03-31T08:39:40;12.40;99.90
18173;DHT22;9211;48.818;9.312;2023-03-31T08:42:10;12.50;99.90
18173;DHT22;9211;48.818;9.312;2023-03-31T08:44:41;12.60;99.90
18173;DHT22;9211;48.818;9.312;2023-03-31T08:47:14;12.60;99.90
18173;DHT22;9211;48.818;9.312;2023-03-31T08:49:45;12.70;99.90
18173;DHT22;9211;48.818;9.312;2023-03-31T08:52:15;12.80;99.90
18173;DHT22;9211;48.818;9.312;2023-03-31T08:54:48;12.80;99.90
18173;DHT22;9211;48.818;9.312;2023-03-31T08:57:20;13.00;99.90
18173;DHT22;9211;48.818;9.312;2023-03-31T08:59:50;13.00;99.90
18173;DHT22;9211;48.818;9.312;2023-03-31T09:02:23;13.10;99.90
18173;DHT22;9211;48.818;9.312;2023-03-31T09:05:21;13.20;99.90
18173;DHT22;9211;48.818;9.312;2023-03-31T09:07:57;13.30;99.90
18173;DHT22;9211;48.818;9.312;2023-03-31T09:10:49;13.40;99.90
18173;DHT22;9211;48.818;9.312;2023-03-31T09:13:29;13.50;99.90
18173;DHT22;9211;48.818;9.312;2023-03-31T09:16:02;13.60;99.90
18173;DHT22;9211;48.818;9.312;2023-03-31T09:18:33;13.70;99.90
18173;DHT22;9211;48.818;9.312;2023-03-31T09:21:05;13.80;99.90
18173;DHT22;9211;48.818;9.312;2023-03-31T09:23:35;14.00;99.90
18173;DHT22;9211;48.818;9.312;2023-03-31T09:26:23;14.00;99.90
18173;DHT22;9211;48.818;9.312;2023-03-31T09:28:53;14.10;99.90
18173;DHT22;9211;48.818;9.312;2023-03-31T09:31:23;14.10;99.90
18173;DHT22;9211;48.818;9.312;2023-03-31T09:33:53;14.10;99.90
18173;DHT22;9211;48.818;9.312;2023-03-31T09:36:22;14.10;99.90
18173;DHT22;9211;48.818;9.312;2023-03-31T09:38:49;14.20;99.90
18173;DHT22;9211;48.818;9.312;2023-03-31T09:41:18;14.30;99.90
18173;DHT22;9211;48.818;9.312;2023-03-31T09:43:46;14.30;99.90
18173;DHT22;9211;48.818;9.312;2023-03-31T09:46:17;14.30;99.90
18173;DHT22;9211;48.818;9.312;2023-03-31T09:48:52;14.30;99.90
18173;DHT22;9211;48.818;9.312;2023-03-31T09:51:25;14.30;99.90
18173;DHT22;9211;48.818;9.312;2023-03-31T09:53:57;14.30;99.90
18173;DHT22;9211;48.818;9.312;2023-03-31T09:56:44;14.30;99.90
18173;DHT22;9211;48.818;9.312;2023-03-31T09:59:15;14.30;99.90
18173;DHT22;9211;48.818;9.312;2023-03-31T10:01:44;14.30;99.90
18173;DHT22;9211;48.818;9.312;2023-03-31T10:04:18;14.30;99.90
18173;DHT22;9211;48.818;9.312;2023-03-31T10:06:46;14.40;99.90
18173;DHT22;9211;48.818;9.312;2023-03-31T10:09:14;14.40;99.90
18173;DHT22;9211;48.818;9.312;2023-03-31T10:11:53;14.50;99.90
18173;DHT22;9211;48.818;9.312;2023-03-31T10:14:25;14.60;99.90
18173;DHT22;9211;48.818;9.312;2023-03-31T10:16:54;14.60;99.90
18173;DHT22;9211;48.818;9.312;2023-03-31T10:19:24;14.70;99.90
18173;DHT22;9211;48.818;9.312;2023-03-31T10:21:56;14.60;99.90
18173;DHT22;9211;48.818;9.312;2023-03-31T10:24:24;14.70;99.90
18173;DHT22;9211;48.818;9.312;2023-03-31T10:26:55;14.80;99.90
18173;DHT22;9211;48.818;9.312;2023-03-31T10:29:28;15.00;99.90
18173;DHT22;9211;48.818;9.312;2023-03-31T10:32:02;15.10;99.90
18173;DHT22;9211;48.818;9.312;2023-03-31T10:34:29;15.20;99.90
18173;DHT22;9211;48.818;9.312;2023-03-31T10:36:56;15.40;99.90
18173;DHT22;9211;48.818;9.312;2023-03-31T10:39:28;15.50;99.90
18173;DHT22;9211;48.818;9.312;2023-03-31T10:41:58;15.60;99.90
18173;DHT22;9211;48.818;9.312;2023-03-31T10:44:33;15.50;99.90
18173;DHT22;9211;48.818;9.312;2023-03-31T10:47:08;15.60;99.90
18173;DHT22;9211;48.818;9.312;2023-03-31T10:49:43;15.60;99.90
18173;DHT22;9211;48.818;9.312;2023-03-31T10:52:16;15.80;99.90
18173;DHT22;9211;48.818;9.312;2023-03-31T10:54:46;15.90;99.90
18173;DHT22;9211;48.818;9.312;2023-03-31T10:57:16;15.90;99.90
18173;DHT22;9211;48.818;9.312;2023-03-31T11:00:08;16.10;99.90
18173;DHT22;9211;48.818;9.312;2023-03-31T11:05:38;16.20;99.90
18173;DHT22;9211;48.818;9.312;2023-03-31T11:08:22;16.20;99.90
18173;DHT22;9211;48.818;9.312;2023-03-31T11:11:02;16.20;99.90
18173;DHT22;9211;48.818;9.312;2023-03-31T11:13:39;16.20;99.90
18173;DHT22;9211;48.818;9.312;2023-03-31T11:16:17;16.20;99.90
18173;DHT22;9211;48.818;9.312;2023-03-31T11:18:59;16.20;99.90
18173;DHT22;9211;48.818;9.312;2023-03-31T11:21:35;16.20;99.90
18173;DHT22;9211;48.818;9.312;2023-03-31T11:24:13;16.10;99.90
18173;DHT22;9211;48.818;9.312;2023-03-31T11:26:48;16.00;99.90
18173;DHT22;9211;48.818;9.312;2023-03-31T11:29:29;15.80;99.90
18173;DHT22;9211;48.818;9.312;2023-03-31T11:32:29;15.30;99.90
18173;DHT22;9211;48.818;9.312;2023-03-31T11:35:13;13.80;99.90
18173;DHT22;9211;48.818;9.312;2023-03-31T11:37:55;12.60;99.90
18173;DHT22;9211;48.818;9.312;2023-03-31T11:40:44;11.90;99.90
18173;DHT22;9211;48.818;9.312;2023-03-31T11:43:18;11.50;99.90
18173;DHT22;9211;48.818;9.312;2023-03-31T11:45:52;11.30;99.90
18173;DHT22;9211;48.818;9.312;2023-03-31T11:48:28;11.30;99.90
18173;DHT22;9211;48.818;9.312;2023-03-31T11:50:57;11.30;99.90
18173;DHT22;9211;48.818;9.312;2023-03-31T11:53:27;11.30;99.90
18173;DHT22;9211;48.818;9.312;2023-03-31T11:55:57;11.30;99.90
18173;DHT22;9211;48.818;9.312;2023-03-31T11:58:32;11.40;99.90
18173;DHT22;9211;48.818;9.312;2023-03-31T12:01:08;11.40;99.90
18173;DHT22;9211;48.818;9.312;2023-03-31T12:03:42;11.50;99.90
18173;DHT22;9211;48.818;9.312;2023-03-31T12:06:16;11.50;99.90
18173;DHT22;9211;48.818;9.312;2023-03-31T12:08:50;11.60;99.90
18173;DHT22;9211;48.818;9.312;2023-03-31T12:11:25;11.60;99.90
18173;DHT22;9211;48.818;9.312;2023-03-31T12:13:57;11.70;99.90
18173;DHT22;9211;48.818;9.312;2023-03-31T12:16:34;11.80;99.90
18173;DHT22;9211;48.818;9.312;2023-03-31T12:19:06;12.00;99.90
18173;DHT22;9211;48.818;9.312;2023-03-31T12:21:35;12.30;99.90
18173;DHT22;9211;48.818;9.312;2023-03-31T12:24:04;12.60;99.90
18173;DHT22;9211;48.818;9.312;2023-03-31T12:26:37;12.80;99.90
18173;DHT22;9211;48.818;9.312;2023-03-31T12:29:14;12.90;99.90
18173;DHT22;9211;48.818;9.312;2023-03-31T12:31:45;13.00;99.90
18173;DHT22;9211;48.818;9.312;2023-03-31T12:34:14;13.20;99.90
18173;DHT22;9211;48.818;9.312;2023-03-31T12:36:54;13.30;99.90
18173;DHT22;9211;48.818;9.312;2023-03-31T12:39:30;13.40;99.90
18173;DHT22;9211;48.818;9.312;2023-03-31T12:42:33;13.40;99.90
18173;DHT22;9211;48.818;9.312;2023-03-31T12:45:06;13.50;99.90
18173;DHT22;9211;48.818;9.312;2023-03-31T12:47:49;13.60;99.90
18173;DHT22;9211;48.818;9.312;2023-03-31T12:50:30;13.60;99.90
18173;DHT22;9211;48.818;9.312;2023-03-31T12:53:04;13.70;99.90
18173;DHT22;9211;48.818;9.312;2023-03-31T12:55:37;13.80;99.90
18173;DHT22;9211;48.818;9.312;2023-03-31T12:58:39;14.00;99.90
18173;DHT22;9211;48.818;9.312;2023-03-31T13:01:09;14.20;99.90
18173;DHT22;9211;48.818;9.312;2023-03-31T13:04:06;14.40;99.90
18173;DHT22;9211;48.818;9.312;2023-03-31T13:06:58;14.60;99.90
18173;DHT22;9211;48.818;9.312;2023-03-31T13:09:43;14.70;99.90
18173;DHT22;9211;48.818;9.312;2023-03-31T13:12:16;14.80;99.90
18173;DHT22;9211;48.818;9.312;2023-03-31T13:14:45;14.90;99.90
18173;DHT22;9211;48.818;9.312;2023-03-31T13:17:24;15.00;99.90
18173;DHT22;9211;48.818;9.312;2023-03-31T13:19:53;15.00;99.90
18173;DHT22;9211;48.818;9.312;2023-03-31T13:22:32;14.90;99.90
18173;DHT22;9211;48.818;9.312;2023-03-31T13:25:41;14.80;99.90
18173;DHT22;9211;48.818;9.312;2023-03-31T13:28:26;14.60;99.90
18173;DHT22;9211;48.818;9.312;2023-03-31T13:30:57;14.30;99.90
18173;DHT22;9211;48.818;9.312;2023-03-31T13:33:30;14.00;99.90
18173;DHT22;9211;48.818;9.312;2023-03-31T13:36:22;13.80;99.90
18173;DHT22;9211;48.818;9.312;2023-03-31T13:39:07;13.60;99.90
18173;DHT22;9211;48.818;9.312;2023-03-31T13:41:47;13.40;99.90
18173;DHT22;9211;48.818;9.312;2023-03-31T13:44:43;13.30;99.90
18173;DHT22;9211;48.818;9.312;2023-03-31T13:47:38;13.30;99.90
18173;DHT22;9211;48.818;9.312;2023-03-31T13:50:35;13.30;99.90
18173;DHT22;9211;48.818;9.312;2023-03-31T13:56:04;13.20;99.90
18173;DHT22;9211;48.818;9.312;2023-03-31T14:01:49;12.80;99.90
18173;DHT22;9211;48.818;9.312;2023-03-31T14:04:55;12.70;99.90
18173;DHT22;9211;48.818;9.312;2023-03-31T14:07:29;12.60;99.90
18173;DHT22;9211;48.818;9.312;2023-03-31T14:09:59;12.50;99.90
18173;DHT22;9211;48.818;9.312;2023-03-31T14:12:31;12.30;99.90
18173;DHT22;9211;48.818;9.312;2023-03-31T14:14:58;12.30;99.90
18173;DHT22;9211;48.818;9.312;2023-03-31T14:17:27;12.10;99.90
18173;DHT22;9211;48.818;9.312;2023-03-31T14:20:21;12.20;99.90
18173;DHT22;9211;48.818;9.312;2023-03-31T14:22:58;12.30;99.90
18173;DHT22;9211;48.818;9.312;2023-03-31T14:25:38;12.50;99.90
18173;DHT22;9211;48.818;9.312;2023-03-31T14:28:24;12.80;99.90
18173;DHT22;9211;48.818;9.312;2023-03-31T14:31:06;13.10;99.90
18173;DHT22;9211;48.818;9.312;2023-03-31T14:33:42;13.50;99.90
18173;DHT22;9211;48.818;9.312;2023-03-31T14:36:18;13.80;99.90
18173;DHT22;9211;48.818;9.312;2023-03-31T14:38:50;14.00;99.90
18173;DHT22;9211;48.818;9.312;2023-03-31T14:41:20;14.00;99.90
18173;DHT22;9211;48.818;9.312;2023-03-31T14:43:56;14.00;99.90
18173;DHT22;9211;48.818;9.312;2023-03-31T14:46:23;14.00;99.90
18173;DHT22;9211;48.818;9.312;2023-03-31T14:48:51;14.20;99.90
18173;DHT22;9211;48.818;9.312;2023-03-31T14:51:23;14.40;99.90
18173;DHT22;9211;48.818;9.312;2023-03-31T14:53:55;14.40;99.90
18173;DHT22;9211;48.818;9.312;2023-03-31T14:56:30;14.60;99.90
18173;DHT22;9211;48.818;9.312;2023-03-31T14:59:00;14.60;99.90
18173;DHT22;9211;48.818;9.312;2023-03-31T15:01:29;14.70;99.90
18173;DHT22;9211;48.818;9.312;2023-03-31T15:04:05;14.70;99.90
18173;DHT22;9211;48.818;9.312;2023-03-31T15:06:32;14.70;99.90
18173;DHT22;9211;48.818;9.312;2023-03-31T15:09:02;14.80;99.90
18173;DHT22;9211;48.818;9.312;2023-03-31T15:11:31;14.90;99.90
18173;DHT22;9211;48.818;9.312;2023-03-31T15:13:58;14.90;99.90
18173;DHT22;9211;48.818;9.312;2023-03-31T15:16:30;15.00;99.90
18173;DHT22;9211;48.818;9.312;2023-03-31T15:18:59;15.10;99.90
18173;DHT22;9211;48.818;9.312;2023-03-31T15:21:30;15.20;99.90
18173;DHT22;9211;48.818;9.312;2023-03-31T15:23:57;15.10;99.90
18173;DHT22;9211;48.818;9.312;2023-03-31T15:26:27;15.00;99.90
18173;DHT22;9211;48.818;9.312;2023-03-31T15:29:01;15.00;99.90
18173;DHT22;9211;48.818;9.312;2023-03-31T15:31:30;15.00;99.90
18173;DHT22;9211;48.818;9.312;2023-03-31T15:33:57;15.00;99.90
18173;DHT22;9211;48.818;9.312;2023-03-31T15:36:26;15.10;99.90
18173;DHT22;9211;48.818;9.312;2023-03-31T15:38:56;15.10;99.90
18173;DHT22;9211;48.818;9.312;2023-03-31T15:41:28;15.30;99.90
18173;DHT22;9211;48.818;9.312;2023-03-31T15:44:04;15.40;99.90
18173;DHT22;9211;48.818;9.312;2023-03-31T15:46:49;15.40;99.90
18173;DHT22;9211;48.818;9.312;2023-03-31T15:49:23;15.30;99.90
18173;DHT22;9211;48.818;9.312;2023-03-31T15:51:50;15.20;99.90
18173;DHT22;9211;48.818;9.312;2023-03-31T15:54:33;15.00;99.90
18173;DHT22;9211;48.818;9.312;2023-03-31T15:57:03;15.00;99.90
18173;DHT22;9211;48.818;9.312;2023-03-31T15:59:43;14.80;99.90
18173;DHT22;9211;48.818;9.312;2023-03-31T16:02:13;14.70;99.90
18173;DHT22;9211;48.818;9.312;2023-03-31T16:04:41;14.70;99.90
18173;DHT22;9211;48.818;9.312;2023-03-31T16:07:14;14.60;99.90
18173;DHT22;9211;48.818;9.312;2023-03-31T16:09:45;14.60;99.90
18173;DHT22;9211;48.818;9.312;2023-03-31T16:12:17;14.50;99.90
18173;DHT22;9211;48.818;9.312;2023-03-31T16:14:50;14.50;99.90
18173;DHT22;9211;48.818;9.312;2023-03-31T16:17:23;14.30;99.90
18173;DHT22;9211;48.818;9.312;2023-03-31T16:19:55;14.20;99.90
18173;DHT22;9211;48.818;9.312;2023-03-31T16:22:27;14.10;99.90
18173;DHT22;9211;48.818;9.312;2023-03-31T16:24:56;14.00;99.90
18173;DHT22;9211;48.818;9.312;2023-03-31T16:27:24;13.90;99.90
18173;DHT22;9211;48.818;9.312;2023-03-31T16:30:05;13.80;99.90
18173;DHT22;9211;48.818;9.312;2023-03-31T16:32:32;13.70;99.90